sensor_id;sensor_type;location;lat;lon;timestamp;pressure;altitude;pressure_sealevel;temperature
43292;BMP280;28754;47.700;7.924;2022-09-01T00:01:52;91567.47;;;16.99
43292;BMP280;28754;47.700;7.924;2022-09-01T00:04:39;91571.69;;;16.95
43292;BMP280;28754;47.700;7.924;2022-09-01T00:07:28;91568.03;;;16.96
43292;BMP280;28754;47.700;7.924;2022-09-01T00:10:17;91572.00;;;16.94
43292;BMP280;28754;47.700;7.924;2022-09-01T00:13:05;91567.69;;;16.89
43292;BMP280;28754;47.700;7.924;2022-09-01T00:15:52;91569.09;;;16.82
43292;BMP280;28754;47.700;7.924;2022-09-01T00:18:41;91567.13;;;16.79
43292;BMP280;28754;47.700;7.924;2022-09-01T00:21:34;91562.97;;;16.78
43292;BMP280;28754;47.700;7.924;2022-09-01T00:24:22;91568.53;;;16.85
43292;BMP280;28754;47.700;7.924;2022-09-01T00:27:08;91558.97;;;16.85
43292;BMP280;28754;47.700;7.924;2022-09-01T00:29:55;91564.41;;;16.84
43292;BMP280;28754;47.700;7.924;2022-09-01T00:32:42;91554.34;;;16.83
43292;BMP280;28754;47.700;7.924;2022-09-01T00:35:32;91561.63;;;16.81
43292;BMP280;28754;47.700;7.924;2022-09-01T00:38:18;91552.84;;;16.82
43292;BMP280;28754;47.700;7.924;2022-09-01T00:41:05;91555.91;;;16.83
43292;BMP280;28754;47.700;7.924;2022-09-01T00:44:03;91539.44;;;16.80
43292;BMP280;28754;47.700;7.924;2022-09-01T00:46:54;91551.38;;;16.89
43292;BMP280;28754;47.700;7.924;2022-09-01T00:49:48;91538.44;;;16.89
43292;BMP280;28754;47.700;7.924;2022-09-01T00:52:49;91537.56;;;16.93
43292;BMP280;28754;47.700;7.924;2022-09-01T00:55:37;91544.09;;;16.91
43292;BMP280;28754;47.700;7.924;2022-09-01T00:58:25;91545.91;;;16.90
43292;BMP280;28754;47.700;7.924;2022-09-01T01:01:13;91541.97;;;16.93
43292;BMP280;28754;47.700;7.924;2022-09-01T01:04:00;91544.56;;;16.93
43292;BMP280;28754;47.700;7.924;2022-09-01T01:06:53;91534.09;;;16.98
43292;BMP280;28754;47.700;7.924;2022-09-01T01:09:47;91531.91;;;17.05
43292;BMP280;28754;47.700;7.924;2022-09-01T01:12:51;91539.19;;;17.03
43292;BMP280;28754;47.700;7.924;2022-09-01T01:15:38;91530.47;;;16.99
43292;BMP280;28754;47.700;7.924;2022-09-01T01:18:29;91543.31;;;17.04
43292;BMP280;28754;47.700;7.924;2022-09-01T01:21:29;91532.00;;;17.00
43292;BMP280;28754;47.700;7.924;2022-09-01T01:24:37;91534.03;;;17.03
43292;BMP280;28754;47.700;7.924;2022-09-01T01:27:24;91527.50;;;17.05
43292;BMP280;28754;47.700;7.924;2022-09-01T01:30:18;91526.81;;;17.00
43292;BMP280;28754;47.700;7.924;2022-09-01T01:33:06;91517.28;;;16.87
43292;BMP280;28754;47.700;7.924;2022-09-01T01:35:54;91530.31;;;16.82
43292;BMP280;28754;47.700;7.924;2022-09-01T01:38:48;91533.84;;;16.86
43292;BMP280;28754;47.700;7.924;2022-09-01T01:41:38;91523.91;;;16.80
43292;BMP280;28754;47.700;7.924;2022-09-01T01:44:28;91532.53;;;16.75
43292;BMP280;28754;47.700;7.924;2022-09-01T01:47:19;91533.88;;;16.73
43292;BMP280;28754;47.700;7.924;2022-09-01T01:50:08;91533.56;;;16.74
43292;BMP280;28754;47.700;7.924;2022-09-01T01:52:55;91539.22;;;16.76
43292;BMP280;28754;47.700;7.924;2022-09-01T01:55:47;91538.47;;;16.76
43292;BMP280;28754;47.700;7.924;2022-09-01T01:58:35;91541.34;;;16.74
43292;BMP280;28754;47.700;7.924;2022-09-01T02:01:29;91536.38;;;16.64
43292;BMP280;28754;47.700;7.924;2022-09-01T02:04:19;91543.94;;;16.61
43292;BMP280;28754;47.700;7.924;2022-09-01T02:07:11;91538.97;;;16.64
43292;BMP280;28754;47.700;7.924;2022-09-01T02:09:58;91536.38;;;16.64
43292;BMP280;28754;47.700;7.924;2022-09-01T02:12:47;91538.50;;;16.62
43292;BMP280;28754;47.700;7.924;2022-09-01T02:15:39;91543.00;;;16.70
43292;BMP280;28754;47.700;7.924;2022-09-01T02:18:37;91538.09;;;16.69
43292;BMP280;28754;47.700;7.924;2022-09-01T02:21:26;91538.75;;;16.61
43292;BMP280;28754;47.700;7.924;2022-09-01T02:24:13;91543.38;;;16.64
43292;BMP280;28754;47.700;7.924;2022-09-01T02:27:00;91542.03;;;16.66
43292;BMP280;28754;47.700;7.924;2022-09-01T02:29:50;91541.06;;;16.76
43292;BMP280;28754;47.700;7.924;2022-09-01T02:32:39;91528.31;;;16.79
43292;BMP280;28754;47.700;7.924;2022-09-01T02:35:27;91536.16;;;16.74
43292;BMP280;28754;47.700;7.924;2022-09-01T02:38:17;91534.75;;;16.68
43292;BMP280;28754;47.700;7.924;2022-09-01T02:41:06;91534.84;;;16.63
43292;BMP280;28754;47.700;7.924;2022-09-01T02:43:53;91535.03;;;16.53
43292;BMP280;28754;47.700;7.924;2022-09-01T02:46:42;91535.22;;;16.44
43292;BMP280;28754;47.700;7.924;2022-09-01T02:49:29;91525.75;;;16.39
43292;BMP280;28754;47.700;7.924;2022-09-01T02:52:17;91529.09;;;16.40
43292;BMP280;28754;47.700;7.924;2022-09-01T02:55:08;91527.59;;;16.39
43292;BMP280;28754;47.700;7.924;2022-09-01T02:57:55;91519.94;;;16.34
43292;BMP280;28754;47.700;7.924;2022-09-01T03:00:43;91527.22;;;16.32
43292;BMP280;28754;47.700;7.924;2022-09-01T03:03:29;91529.47;;;16.33
43292;BMP280;28754;47.700;7.924;2022-09-01T03:06:17;91524.13;;;16.30
43292;BMP280;28754;47.700;7.924;2022-09-01T03:09:11;91520.88;;;16.24
43292;BMP280;28754;47.700;7.924;2022-09-01T03:12:00;91526.41;;;16.18
43292;BMP280;28754;47.700;7.924;2022-09-01T03:14:47;91516.44;;;16.12
43292;BMP280;28754;47.700;7.924;2022-09-01T03:17:33;91512.13;;;16.07
43292;BMP280;28754;47.700;7.924;2022-09-01T03:20:20;91517.94;;;15.99
43292;BMP280;28754;47.700;7.924;2022-09-01T03:23:10;91522.16;;;15.95
43292;BMP280;28754;47.700;7.924;2022-09-01T03:26:01;91513.16;;;15.93
43292;BMP280;28754;47.700;7.924;2022-09-01T03:28:50;91514.00;;;15.88
43292;BMP280;28754;47.700;7.924;2022-09-01T03:31:37;91526.25;;;15.83
43292;BMP280;28754;47.700;7.924;2022-09-01T03:34:24;91526.31;;;15.78
43292;BMP280;28754;47.700;7.924;2022-09-01T03:37:13;91521.34;;;15.81
43292;BMP280;28754;47.700;7.924;2022-09-01T03:40:02;91519.06;;;15.80
43292;BMP280;28754;47.700;7.924;2022-09-01T03:42:53;91524.31;;;15.75
43292;BMP280;28754;47.700;7.924;2022-09-01T03:45:41;91518.00;;;15.68
43292;BMP280;28754;47.700;7.924;2022-09-01T03:48:30;91509.81;;;15.61
43292;BMP280;28754;47.700;7.924;2022-09-01T03:51:19;91521.88;;;15.65
43292;BMP280;28754;47.700;7.924;2022-09-01T03:54:09;91516.53;;;15.62
43292;BMP280;28754;47.700;7.924;2022-09-01T03:56:56;91516.31;;;15.58
43292;BMP280;28754;47.700;7.924;2022-09-01T03:59:45;91516.53;;;15.62
43292;BMP280;28754;47.700;7.924;2022-09-01T04:02:32;91513.88;;;15.67
43292;BMP280;28754;47.700;7.924;2022-09-01T04:05:20;91512.91;;;15.63
43292;BMP280;28754;47.700;7.924;2022-09-01T04:08:10;91509.56;;;15.62
43292;BMP280;28754;47.700;7.924;2022-09-01T04:11:08;91507.34;;;15.56
43292;BMP280;28754;47.700;7.924;2022-09-01T04:13:55;91509.03;;;15.47
43292;BMP280;28754;47.700;7.924;2022-09-01T04:16:43;91498.22;;;15.45
43292;BMP280;28754;47.700;7.924;2022-09-01T04:19:48;91502.06;;;15.47
43292;BMP280;28754;47.700;7.924;2022-09-01T04:22:35;91496.63;;;15.49
43292;BMP280;28754;47.700;7.924;2022-09-01T04:25:23;91492.44;;;15.53
43292;BMP280;28754;47.700;7.924;2022-09-01T04:28:10;91496.63;;;15.49
43292;BMP280;28754;47.700;7.924;2022-09-01T04:31:12;91497.16;;;15.46
43292;BMP280;28754;47.700;7.924;2022-09-01T04:34:03;91498.44;;;15.48
43292;BMP280;28754;47.700;7.924;2022-09-01T04:39:56;91497.97;;;15.46
43292;BMP280;28754;47.700;7.924;2022-09-01T04:42:43;91501.78;;;15.49
43292;BMP280;28754;47.700;7.924;2022-09-01T04:45:34;91496.25;;;15.55
43292;BMP280;28754;47.700;7.924;2022-09-01T04:48:21;91489.53;;;15.54
43292;BMP280;28754;47.700;7.924;2022-09-01T04:51:09;91494.03;;;15.49
43292;BMP280;28754;47.700;7.924;2022-09-01T04:54:11;91485.53;;;15.48
43292;BMP280;28754;47.700;7.924;2022-09-01T04:57:01;91489.38;;;15.51
43292;BMP280;28754;47.700;7.924;2022-09-01T04:59:49;91491.66;;;15.52
43292;BMP280;28754;47.700;7.924;2022-09-01T05:02:36;91482.16;;;15.48
43292;BMP280;28754;47.700;7.924;2022-09-01T05:05:23;91494.03;;;15.49
43292;BMP280;28754;47.700;7.924;2022-09-01T05:08:17;91487.63;;;15.46
43292;BMP280;28754;47.700;7.924;2022-09-01T05:11:05;91488.31;;;15.52
43292;BMP280;28754;47.700;7.924;2022-09-01T05:13:59;91486.91;;;15.59
43292;BMP280;28754;47.700;7.924;2022-09-01T05:16:46;91496.28;;;15.69
43292;BMP280;28754;47.700;7.924;2022-09-01T05:19:32;91492.47;;;15.66
43292;BMP280;28754;47.700;7.924;2022-09-01T05:22:20;91489.41;;;15.64
43292;BMP280;28754;47.700;7.924;2022-09-01T05:25:18;91497.78;;;15.56
43292;BMP280;28754;47.700;7.924;2022-09-01T05:28:05;91501.41;;;15.55
43292;BMP280;28754;47.700;7.924;2022-09-01T05:30:52;91503.06;;;15.65
43292;BMP280;28754;47.700;7.924;2022-09-01T05:33:40;91509.69;;;15.71
43292;BMP280;28754;47.700;7.924;2022-09-01T05:36:31;91502.81;;;15.79
43292;BMP280;28754;47.700;7.924;2022-09-01T05:39:19;91503.00;;;15.83
43292;BMP280;28754;47.700;7.924;2022-09-01T05:42:07;91515.63;;;15.84
43292;BMP280;28754;47.700;7.924;2022-09-01T05:44:54;91513.63;;;15.81
43292;BMP280;28754;47.700;7.924;2022-09-01T05:47:41;91504.84;;;15.82
43292;BMP280;28754;47.700;7.924;2022-09-01T05:50:29;91508.94;;;15.83
43292;BMP280;28754;47.700;7.924;2022-09-01T05:53:17;91518.91;;;15.90
43292;BMP280;28754;47.700;7.924;2022-09-01T05:56:07;91502.63;;;15.89
43292;BMP280;28754;47.700;7.924;2022-09-01T05:58:55;91511.91;;;15.90
43292;BMP280;28754;47.700;7.924;2022-09-01T06:01:43;91516.31;;;15.90
43292;BMP280;28754;47.700;7.924;2022-09-01T06:04:33;91517.00;;;15.95
43292;BMP280;28754;47.700;7.924;2022-09-01T06:07:23;91521.50;;;16.03
43292;BMP280;28754;47.700;7.924;2022-09-01T06:10:14;91508.03;;;16.06
43292;BMP280;28754;47.700;7.924;2022-09-01T06:13:02;91510.72;;;16.14
43292;BMP280;28754;47.700;7.924;2022-09-01T06:15:51;91512.84;;;16.26
43292;BMP280;28754;47.700;7.924;2022-09-01T06:18:40;91518.22;;;16.43
43292;BMP280;28754;47.700;7.924;2022-09-01T06:21:28;91520.97;;;16.46
43292;BMP280;28754;47.700;7.924;2022-09-01T06:24:16;91524.88;;;16.44
43292;BMP280;28754;47.700;7.924;2022-09-01T06:27:04;91531.41;;;16.54
43292;BMP280;28754;47.700;7.924;2022-09-01T06:29:52;91525.72;;;16.66
43292;BMP280;28754;47.700;7.924;2022-09-01T06:32:41;91537.81;;;16.70
43292;BMP280;28754;47.700;7.924;2022-09-01T06:35:31;91539.34;;;16.71
43292;BMP280;28754;47.700;7.924;2022-09-01T06:38:19;91532.72;;;16.65
43292;BMP280;28754;47.700;7.924;2022-09-01T06:41:08;91543.66;;;16.62
43292;BMP280;28754;47.700;7.924;2022-09-01T06:43:56;91540.59;;;16.60
43292;BMP280;28754;47.700;7.924;2022-09-01T06:46:51;91545.38;;;16.67
43292;BMP280;28754;47.700;7.924;2022-09-01T06:49:38;91538.56;;;16.84
43292;BMP280;28754;47.700;7.924;2022-09-01T06:52:30;91540.16;;;17.07
43292;BMP280;28754;47.700;7.924;2022-09-01T06:55:17;91539.75;;;17.13
43292;BMP280;28754;47.700;7.924;2022-09-01T06:58:06;91549.91;;;17.23
43292;BMP280;28754;47.700;7.924;2022-09-01T07:00:54;91539.75;;;17.26
43292;BMP280;28754;47.700;7.924;2022-09-01T07:03:42;91545.63;;;17.40
43292;BMP280;28754;47.700;7.924;2022-09-01T07:06:39;91543.78;;;17.54
43292;BMP280;28754;47.700;7.924;2022-09-01T07:09:36;91541.19;;;17.54
43292;BMP280;28754;47.700;7.924;2022-09-01T07:12:54;91544.47;;;17.46
43292;BMP280;28754;47.700;7.924;2022-09-01T07:15:42;91557.94;;;17.56
43292;BMP280;28754;47.700;7.924;2022-09-01T07:18:31;91548.47;;;17.52
43292;BMP280;28754;47.700;7.924;2022-09-01T07:21:18;91555.97;;;17.40
43292;BMP280;28754;47.700;7.924;2022-09-01T07:24:09;91553.72;;;17.25
43292;BMP280;28754;47.700;7.924;2022-09-01T07:26:57;91555.84;;;17.23
43292;BMP280;28754;47.700;7.924;2022-09-01T07:29:43;91553.22;;;17.37
43292;BMP280;28754;47.700;7.924;2022-09-01T07:32:30;91561.69;;;17.51
43292;BMP280;28754;47.700;7.924;2022-09-01T07:35:20;91559.78;;;17.56
43292;BMP280;28754;47.700;7.924;2022-09-01T07:38:09;91554.88;;;17.54
43292;BMP280;28754;47.700;7.924;2022-09-01T07:40:58;91556.81;;;17.49
43292;BMP280;28754;47.700;7.924;2022-09-01T07:44:04;91563.81;;;17.49
43292;BMP280;28754;47.700;7.924;2022-09-01T07:47:09;91562.94;;;17.53
43292;BMP280;28754;47.700;7.924;2022-09-01T07:49:57;91574.13;;;17.62
43292;BMP280;28754;47.700;7.924;2022-09-01T07:52:45;91570.97;;;17.65
43292;BMP280;28754;47.700;7.924;2022-09-01T07:55:39;91573.72;;;17.68
43292;BMP280;28754;47.700;7.924;2022-09-01T07:58:28;91571.44;;;17.67
43292;BMP280;28754;47.700;7.924;2022-09-01T08:01:26;91567.78;;;17.68
43292;BMP280;28754;47.700;7.924;2022-09-01T08:04:13;91565.66;;;17.70
43292;BMP280;28754;47.700;7.924;2022-09-01T08:07:02;91561.22;;;17.70
43292;BMP280;28754;47.700;7.924;2022-09-01T08:09:51;91562.19;;;17.74
43292;BMP280;28754;47.700;7.924;2022-09-01T08:12:38;91576.00;;;17.70
43292;BMP280;28754;47.700;7.924;2022-09-01T08:15:25;91562.59;;;17.68
43292;BMP280;28754;47.700;7.924;2022-09-01T08:18:12;91565.06;;;17.73
43292;BMP280;28754;47.700;7.924;2022-09-01T08:21:05;91567.53;;;17.78
43292;BMP280;28754;47.700;7.924;2022-09-01T08:23:55;91567.81;;;17.98
43292;BMP280;28754;47.700;7.924;2022-09-01T08:26:43;91565.22;;;18.20
43292;BMP280;28754;47.700;7.924;2022-09-01T08:29:30;91570.50;;;18.36
43292;BMP280;28754;47.700;7.924;2022-09-01T08:32:16;91576.38;;;18.50
43292;BMP280;28754;47.700;7.924;2022-09-01T08:35:04;91587.38;;;18.56
43292;BMP280;28754;47.700;7.924;2022-09-01T08:37:50;91576.09;;;18.60
43292;BMP280;28754;47.700;7.924;2022-09-01T08:40:39;91570.94;;;18.68
43292;BMP280;28754;47.700;7.924;2022-09-01T08:46:37;91574.03;;;18.79
43292;BMP280;28754;47.700;7.924;2022-09-01T08:49:25;91568.66;;;18.75
43292;BMP280;28754;47.700;7.924;2022-09-01T08:52:41;91577.69;;;18.69
43292;BMP280;28754;47.700;7.924;2022-09-01T08:55:43;91570.81;;;18.73
43292;BMP280;28754;47.700;7.924;2022-09-01T08:58:32;91565.50;;;18.78
43292;BMP280;28754;47.700;7.924;2022-09-01T09:08:51;91570.94;;;19.15
43292;BMP280;28754;47.700;7.924;2022-09-01T09:12:15;91583.22;;;19.31
43292;BMP280;28754;47.700;7.924;2022-09-01T09:15:26;91581.53;;;19.35
43292;BMP280;28754;47.700;7.924;2022-09-01T09:19:27;91581.06;;;19.33
43292;BMP280;28754;47.700;7.924;2022-09-01T09:21:55;91577.22;;;19.31
43292;BMP280;28754;47.700;7.924;2022-09-01T09:27:51;91572.22;;;19.51
43292;BMP280;28754;47.700;7.924;2022-09-01T09:30:37;91571.16;;;19.60
43292;BMP280;28754;47.700;7.924;2022-09-01T09:33:44;91572.38;;;19.71
43292;BMP280;28754;47.700;7.924;2022-09-01T09:36:36;91570.25;;;19.82
43292;BMP280;28754;47.700;7.924;2022-09-01T09:39:23;91561.38;;;19.99
43292;BMP280;28754;47.700;7.924;2022-09-01T09:42:12;91574.50;;;20.20
43292;BMP280;28754;47.700;7.924;2022-09-01T09:44:59;91564.69;;;20.25
43292;BMP280;28754;47.700;7.924;2022-09-01T09:47:46;91565.44;;;20.34
43292;BMP280;28754;47.700;7.924;2022-09-01T09:50:41;91566.75;;;20.48
43292;BMP280;28754;47.700;7.924;2022-09-01T09:53:30;91566.63;;;20.62
43292;BMP280;28754;47.700;7.924;2022-09-01T09:56:23;91557.38;;;20.72
43292;BMP280;28754;47.700;7.924;2022-09-01T09:59:22;91560.38;;;20.83
43292;BMP280;28754;47.700;7.924;2022-09-01T10:02:35;91562.78;;;20.96
43292;BMP280;28754;47.700;7.924;2022-09-01T10:05:41;91567.09;;;20.92
43292;BMP280;28754;47.700;7.924;2022-09-01T10:11:39;91561.31;;;20.78
43292;BMP280;28754;47.700;7.924;2022-09-01T10:14:54;91553.47;;;20.87
43292;BMP280;28754;47.700;7.924;2022-09-01T10:17:43;91550.03;;;21.03
43292;BMP280;28754;47.700;7.924;2022-09-01T10:20:33;91552.00;;;21.06
43292;BMP280;28754;47.700;7.924;2022-09-01T10:23:22;91557.19;;;21.06
43292;BMP280;28754;47.700;7.924;2022-09-01T10:26:16;91551.19;;;21.14
43292;BMP280;28754;47.700;7.924;2022-09-01T10:29:20;91546.06;;;21.26
43292;BMP280;28754;47.700;7.924;2022-09-01T10:32:12;91546.41;;;21.44
43292;BMP280;28754;47.700;7.924;2022-09-01T10:35:02;91541.47;;;21.51
43292;BMP280;28754;47.700;7.924;2022-09-01T10:37:52;91542.03;;;21.57
43292;BMP280;28754;47.700;7.924;2022-09-01T10:40:42;91536.78;;;21.65
43292;BMP280;28754;47.700;7.924;2022-09-01T10:43:46;91532.63;;;21.64
43292;BMP280;28754;47.700;7.924;2022-09-01T10:55:46;91527.28;;;21.81
43292;BMP280;28754;47.700;7.924;2022-09-01T11:07:32;91528.06;;;21.81
43292;BMP280;28754;47.700;7.924;2022-09-01T11:10:42;91530.69;;;21.93
43292;BMP280;28754;47.700;7.924;2022-09-01T11:13:45;91522.13;;;21.93
43292;BMP280;28754;47.700;7.924;2022-09-01T11:16:40;91521.81;;;21.94
43292;BMP280;28754;47.700;7.924;2022-09-01T11:22:43;91527.34;;;22.04
43292;BMP280;28754;47.700;7.924;2022-09-01T11:25:58;91528.97;;;21.97
43292;BMP280;28754;47.700;7.924;2022-09-01T11:28:46;91526.06;;;21.99
43292;BMP280;28754;47.700;7.924;2022-09-01T11:31:40;91532.13;;;22.02
43292;BMP280;28754;47.700;7.924;2022-09-01T11:34:29;91530.94;;;22.00
43292;BMP280;28754;47.700;7.924;2022-09-01T11:37:21;91528.00;;;22.02
43292;BMP280;28754;47.700;7.924;2022-09-01T11:40:08;91529.72;;;21.98
43292;BMP280;28754;47.700;7.924;2022-09-01T11:42:59;91528.06;;;21.81
43292;BMP280;28754;47.700;7.924;2022-09-01T11:46:01;91531.88;;;21.84
43292;BMP280;28754;47.700;7.924;2022-09-01T11:48:53;91533.88;;;21.99
43292;BMP280;28754;47.700;7.924;2022-09-01T11:51:45;91523.03;;;22.08
43292;BMP280;28754;47.700;7.924;2022-09-01T11:54:40;91528.09;;;22.13
43292;BMP280;28754;47.700;7.924;2022-09-01T11:57:36;91520.88;;;22.10
43292;BMP280;28754;47.700;7.924;2022-09-01T12:00:31;91530.41;;;22.06
43292;BMP280;28754;47.700;7.924;2022-09-01T12:03:26;91538.38;;;22.10
43292;BMP280;28754;47.700;7.924;2022-09-01T12:06:25;91531.06;;;22.03
43292;BMP280;28754;47.700;7.924;2022-09-01T12:09:12;91520.38;;;22.17
43292;BMP280;28754;47.700;7.924;2022-09-01T12:11:59;91519.22;;;22.26
43292;BMP280;28754;47.700;7.924;2022-09-01T12:15:20;91522.97;;;22.17
43292;BMP280;28754;47.700;7.924;2022-09-01T12:18:36;91532.34;;;21.98
43292;BMP280;28754;47.700;7.924;2022-09-01T12:21:32;91521.69;;;21.91
43292;BMP280;28754;47.700;7.924;2022-09-01T12:24:23;91522.44;;;21.91
43292;BMP280;28754;47.700;7.924;2022-09-01T12:27:11;91532.13;;;22.02
43292;BMP280;28754;47.700;7.924;2022-09-01T12:29:58;91527.00;;;22.14
43292;BMP280;28754;47.700;7.924;2022-09-01T12:32:45;91532.16;;;22.35
43292;BMP280;28754;47.700;7.924;2022-09-01T12:35:33;91529.88;;;22.45
43292;BMP280;28754;47.700;7.924;2022-09-01T12:53:15;91533.84;;;22.63
43292;BMP280;28754;47.700;7.924;2022-09-01T12:59:20;91525.47;;;22.69
43292;BMP280;28754;47.700;7.924;2022-09-01T13:02:34;91517.50;;;22.54
43292;BMP280;28754;47.700;7.924;2022-09-01T13:08:24;91522.31;;;22.52
43292;BMP280;28754;47.700;7.924;2022-09-01T13:11:19;91506.88;;;22.59
43292;BMP280;28754;47.700;7.924;2022-09-01T13:14:07;91519.03;;;22.67
43292;BMP280;28754;47.700;7.924;2022-09-01T13:16:54;91530.00;;;22.60
43292;BMP280;28754;47.700;7.924;2022-09-01T13:19:40;91526.22;;;22.58
43292;BMP280;28754;47.700;7.924;2022-09-01T13:22:27;91527.09;;;22.62
43292;BMP280;28754;47.700;7.924;2022-09-01T13:25:18;91508.28;;;22.56
43292;BMP280;28754;47.700;7.924;2022-09-01T13:28:06;91515.22;;;22.52
43292;BMP280;28754;47.700;7.924;2022-09-01T13:30:58;91514.88;;;22.42
43292;BMP280;28754;47.700;7.924;2022-09-01T13:33:45;91518.78;;;22.24
43292;BMP280;28754;47.700;7.924;2022-09-01T13:36:32;91518.66;;;22.21
43292;BMP280;28754;47.700;7.924;2022-09-01T13:39:19;91516.78;;;22.21
43292;BMP280;28754;47.700;7.924;2022-09-01T13:42:06;91518.16;;;22.07
43292;BMP280;28754;47.700;7.924;2022-09-01T13:44:53;91518.69;;;22.01
43292;BMP280;28754;47.700;7.924;2022-09-01T13:47:40;91517.34;;;21.95
43292;BMP280;28754;47.700;7.924;2022-09-01T13:50:27;91511.91;;;21.88
43292;BMP280;28754;47.700;7.924;2022-09-01T13:53:15;91509.53;;;21.95
43292;BMP280;28754;47.700;7.924;2022-09-01T13:56:03;91502.22;;;21.88
43292;BMP280;28754;47.700;7.924;2022-09-01T13:58:49;91503.75;;;21.89
43292;BMP280;28754;47.700;7.924;2022-09-01T14:01:36;91505.78;;;21.84
43292;BMP280;28754;47.700;7.924;2022-09-01T14:04:23;91497.53;;;21.82
43292;BMP280;28754;47.700;7.924;2022-09-01T14:07:10;91506.19;;;22.06
43292;BMP280;28754;47.700;7.924;2022-09-01T14:09:57;91508.00;;;22.26
43292;BMP280;28754;47.700;7.924;2022-09-01T14:12:44;91497.28;;;22.39
43292;BMP280;28754;47.700;7.924;2022-09-01T14:15:32;91486.00;;;22.59
43292;BMP280;28754;47.700;7.924;2022-09-01T14:18:20;91496.75;;;22.81
43292;BMP280;28754;47.700;7.924;2022-09-01T14:21:15;91494.91;;;23.05
43292;BMP280;28754;47.700;7.924;2022-09-01T14:24:02;91487.94;;;23.21
43292;BMP280;28754;47.700;7.924;2022-09-01T14:26:49;91492.13;;;23.37
43292;BMP280;28754;47.700;7.924;2022-09-01T14:29:36;91479.75;;;23.34
43292;BMP280;28754;47.700;7.924;2022-09-01T14:32:23;91493.13;;;23.33
43292;BMP280;28754;47.700;7.924;2022-09-01T14:35:17;91482.91;;;23.40
43292;BMP280;28754;47.700;7.924;2022-09-01T14:38:04;91484.28;;;23.49
43292;BMP280;28754;47.700;7.924;2022-09-01T14:40:53;91488.44;;;23.38
43292;BMP280;28754;47.700;7.924;2022-09-01T14:43:41;91492.94;;;23.38
43292;BMP280;28754;47.700;7.924;2022-09-01T14:46:30;91486.84;;;23.34
43292;BMP280;28754;47.700;7.924;2022-09-01T14:49:19;91482.72;;;23.09
43292;BMP280;28754;47.700;7.924;2022-09-01T14:52:07;91493.09;;;22.94
43292;BMP280;28754;47.700;7.924;2022-09-01T14:54:54;91488.91;;;22.81
43292;BMP280;28754;47.700;7.924;2022-09-01T14:57:40;91486.41;;;22.73
43292;BMP280;28754;47.700;7.924;2022-09-01T15:00:29;91480.31;;;22.69
43292;BMP280;28754;47.700;7.924;2022-09-01T15:03:16;91481.41;;;22.79
43292;BMP280;28754;47.700;7.924;2022-09-01T15:06:03;91482.94;;;22.80
43292;BMP280;28754;47.700;7.924;2022-09-01T15:08:50;91484.28;;;22.86
43292;BMP280;28754;47.700;7.924;2022-09-01T15:11:37;91489.41;;;22.95
43292;BMP280;28754;47.700;7.924;2022-09-01T15:14:24;91476.66;;;22.93
43292;BMP280;28754;47.700;7.924;2022-09-01T15:17:10;91484.25;;;22.98
43292;BMP280;28754;47.700;7.924;2022-09-01T15:19:57;91470.69;;;22.93
43292;BMP280;28754;47.700;7.924;2022-09-01T15:23:05;91473.50;;;22.76
43292;BMP280;28754;47.700;7.924;2022-09-01T15:25:54;91480.03;;;22.58
43292;BMP280;28754;47.700;7.924;2022-09-01T15:28:45;91470.75;;;22.49
43292;BMP280;28754;47.700;7.924;2022-09-01T15:31:32;91479.56;;;22.44
43292;BMP280;28754;47.700;7.924;2022-09-01T15:34:19;91482.91;;;22.33
43292;BMP280;28754;47.700;7.924;2022-09-01T15:37:05;91468.00;;;22.22
43292;BMP280;28754;47.700;7.924;2022-09-01T15:39:52;91477.88;;;22.16
43292;BMP280;28754;47.700;7.924;2022-09-01T15:42:39;91485.63;;;22.04
43292;BMP280;28754;47.700;7.924;2022-09-01T15:45:27;91484.06;;;21.92
43292;BMP280;28754;47.700;7.924;2022-09-01T15:48:14;91479.06;;;21.87
43292;BMP280;28754;47.700;7.924;2022-09-01T15:54:16;91475.34;;;21.76
43292;BMP280;28754;47.700;7.924;2022-09-01T15:57:04;91461.94;;;21.66
43292;BMP280;28754;47.700;7.924;2022-09-01T15:59:51;91469.09;;;21.57
43292;BMP280;28754;47.700;7.924;2022-09-01T16:02:38;91460.28;;;21.49
43292;BMP280;28754;47.700;7.924;2022-09-01T16:05:25;91471.66;;;21.45
43292;BMP280;28754;47.700;7.924;2022-09-01T16:08:12;91462.81;;;21.37
43292;BMP280;28754;47.700;7.924;2022-09-01T16:10:59;91463.88;;;21.36
43292;BMP280;28754;47.700;7.924;2022-09-01T16:13:49;91453.84;;;21.27
43292;BMP280;28754;47.700;7.924;2022-09-01T16:17:11;91456.00;;;21.25
43292;BMP280;28754;47.700;7.924;2022-09-01T16:20:13;91467.50;;;21.24
43292;BMP280;28754;47.700;7.924;2022-09-01T16:23:20;91465.06;;;21.19
43292;BMP280;28754;47.700;7.924;2022-09-01T16:26:07;91466.06;;;21.06
43292;BMP280;28754;47.700;7.924;2022-09-01T16:28:57;91457.88;;;20.96
43292;BMP280;28754;47.700;7.924;2022-09-01T16:31:52;91451.97;;;20.87
43292;BMP280;28754;47.700;7.924;2022-09-01T16:34:42;91462.56;;;20.82
43292;BMP280;28754;47.700;7.924;2022-09-01T16:46:38;91458.09;;;20.54
43292;BMP280;28754;47.700;7.924;2022-09-01T16:49:51;91460.91;;;20.49
43292;BMP280;28754;47.700;7.924;2022-09-01T16:56:11;91457.47;;;20.57
43292;BMP280;28754;47.700;7.924;2022-09-01T16:59:18;91468.56;;;20.45
43292;BMP280;28754;47.700;7.924;2022-09-01T17:05:57;91461.75;;;20.24
43292;BMP280;28754;47.700;7.924;2022-09-01T17:09:20;91455.66;;;20.20
43292;BMP280;28754;47.700;7.924;2022-09-01T17:12:47;91466.81;;;20.21
43292;BMP280;28754;47.700;7.924;2022-09-01T17:15:38;91465.59;;;20.18
43292;BMP280;28754;47.700;7.924;2022-09-01T17:18:44;91463.19;;;20.05
43292;BMP280;28754;47.700;7.924;2022-09-01T17:21:46;91464.00;;;19.89
43292;BMP280;28754;47.700;7.924;2022-09-01T17:24:43;91467.41;;;19.81
43292;BMP280;28754;47.700;7.924;2022-09-01T17:31:02;91462.75;;;19.95
43292;BMP280;28754;47.700;7.924;2022-09-01T17:41:41;91480.69;;;19.88
43292;BMP280;28754;47.700;7.924;2022-09-01T17:55:01;91471.66;;;19.85
43292;BMP280;28754;47.700;7.924;2022-09-01T17:58:11;91476.84;;;19.77
43292;BMP280;28754;47.700;7.924;2022-09-01T18:01:16;91465.38;;;19.69
43292;BMP280;28754;47.700;7.924;2022-09-01T18:14:32;91476.88;;;19.43
43292;BMP280;28754;47.700;7.924;2022-09-01T18:17:33;91471.84;;;19.38
43292;BMP280;28754;47.700;7.924;2022-09-01T18:20:28;91473.53;;;19.34
43292;BMP280;28754;47.700;7.924;2022-09-01T18:23:18;91477.03;;;19.22